sensor_id;sensor_type;location;lat;lon;timestamp;temperature;humidity
41922;DHT22;27609;51.002;5.354;2023-03-07T00:00:43;5.10;99.90
41922;DHT22;27609;51.002;5.354;2023-03-07T00:03:13;5.20;99.90
41922;DHT22;27609;51.002;5.354;2023-03-07T00:05:40;5.10;99.90
41922;DHT22;27609;51.002;5.354;2023-03-07T00:08:05;5.10;99.90
41922;DHT22;27609;51.002;5.354;2023-03-07T00:10:31;5.00;99.90
41922;DHT22;27609;51.002;5.354;2023-03-07T00:12:57;5.10;99.90
41922;DHT22;27609;51.002;5.354;2023-03-07T00:15:23;5.00;99.90
41922;DHT22;27609;51.002;5.354;2023-03-07T00:17:48;5.00;99.90
41922;DHT22;27609;51.002;5.354;2023-03-07T00:20:14;5.10;99.90
41922;DHT22;27609;51.002;5.354;2023-03-07T00:22:40;5.00;99.90
41922;DHT22;27609;51.002;5.354;2023-03-07T00:25:06;5.00;99.90
41922;DHT22;27609;51.002;5.354;2023-03-07T00:27:32;5.00;99.90
41922;DHT22;27609;51.002;5.354;2023-03-07T00:29:59;5.00;99.90
41922;DHT22;27609;51.002;5.354;2023-03-07T00:32:25;5.00;99.90
41922;DHT22;27609;51.002;5.354;2023-03-07T00:34:51;5.10;99.90
41922;DHT22;27609;51.002;5.354;2023-03-07T00:37:17;5.10;99.90
41922;DHT22;27609;51.002;5.354;2023-03-07T00:39:43;5.00;99.90
41922;DHT22;27609;51.002;5.354;2023-03-07T00:42:09;5.10;99.90
41922;DHT22;27609;51.002;5.354;2023-03-07T00:44:34;5.10;99.90
41922;DHT22;27609;51.002;5.354;2023-03-07T00:47:00;5.10;99.90
41922;DHT22;27609;51.002;5.354;2023-03-07T00:49:26;5.10;99.90
41922;DHT22;27609;51.002;5.354;2023-03-07T00:51:52;5.00;99.90
41922;DHT22;27609;51.002;5.354;2023-03-07T00:54:18;5.00;99.90
41922;DHT22;27609;51.002;5.354;2023-03-07T00:56:43;5.00;99.90
41922;DHT22;27609;51.002;5.354;2023-03-07T00:59:09;5.10;99.90
41922;DHT22;27609;51.002;5.354;2023-03-07T01:01:35;5.10;99.90
41922;DHT22;27609;51.002;5.354;2023-03-07T01:04:01;5.10;99.90
41922;DHT22;27609;51.002;5.354;2023-03-07T01:06:29;5.10;99.90
41922;DHT22;27609;51.002;5.354;2023-03-07T01:08:56;5.00;99.90
41922;DHT22;27609;51.002;5.354;2023-03-07T01:11:23;5.00;99.90
41922;DHT22;27609;51.002;5.354;2023-03-07T01:13:48;4.90;99.90
41922;DHT22;27609;51.002;5.354;2023-03-07T01:16:17;5.00;99.90
41922;DHT22;27609;51.002;5.354;2023-03-07T01:18:46;5.10;99.90
41922;DHT22;27609;51.002;5.354;2023-03-07T01:21:18;5.00;99.90
41922;DHT22;27609;51.002;5.354;2023-03-07T01:23:44;5.10;99.90
41922;DHT22;27609;51.002;5.354;2023-03-07T01:26:12;5.10;99.90
41922;DHT22;27609;51.002;5.354;2023-03-07T01:28:38;5.10;99.90
41922;DHT22;27609;51.002;5.354;2023-03-07T01:31:04;5.10;99.90
41922;DHT22;27609;51.002;5.354;2023-03-07T01:33:29;5.00;99.90
41922;DHT22;27609;51.002;5.354;2023-03-07T01:35:55;5.10;99.90
41922;DHT22;27609;51.002;5.354;2023-03-07T01:38:21;5.10;99.90
41922;DHT22;27609;51.002;5.354;2023-03-07T01:40:46;5.00;99.90
41922;DHT22;27609;51.002;5.354;2023-03-07T01:48:15;5.00;99.90
41922;DHT22;27609;51.002;5.354;2023-03-07T01:50:41;5.00;99.90
41922;DHT22;27609;51.002;5.354;2023-03-07T01:53:07;5.00;99.90
41922;DHT22;27609;51.002;5.354;2023-03-07T01:55:34;5.00;99.90
41922;DHT22;27609;51.002;5.354;2023-03-07T01:58:11;5.00;99.90
41922;DHT22;27609;51.002;5.354;2023-03-07T02:00:38;5.10;99.90
41922;DHT22;27609;51.002;5.354;2023-03-07T02:05:36;5.00;99.90
41922;DHT22;27609;51.002;5.354;2023-03-07T02:08:05;4.90;99.90
41922;DHT22;27609;51.002;5.354;2023-03-07T02:10:32;4.90;99.90
41922;DHT22;27609;51.002;5.354;2023-03-07T02:12:58;4.90;99.90
41922;DHT22;27609;51.002;5.354;2023-03-07T02:15:24;4.90;99.90
41922;DHT22;27609;51.002;5.354;2023-03-07T02:17:50;4.90;99.90
41922;DHT22;27609;51.002;5.354;2023-03-07T02:23:01;4.90;99.90
41922;DHT22;27609;51.002;5.354;2023-03-07T02:25:41;4.80;99.90
41922;DHT22;27609;51.002;5.354;2023-03-07T02:28:10;4.80;99.90
41922;DHT22;27609;51.002;5.354;2023-03-07T02:30:38;4.80;99.90
41922;DHT22;27609;51.002;5.354;2023-03-07T02:33:16;4.80;99.90
41922;DHT22;27609;51.002;5.354;2023-03-07T02:35:41;4.80;99.90
41922;DHT22;27609;51.002;5.354;2023-03-07T02:38:07;4.80;99.90
41922;DHT22;27609;51.002;5.354;2023-03-07T02:40:33;4.80;99.90
41922;DHT22;27609;51.002;5.354;2023-03-07T02:43:01;4.70;99.90
41922;DHT22;27609;51.002;5.354;2023-03-07T02:45:30;4.80;99.90
41922;DHT22;27609;51.002;5.354;2023-03-07T02:47:55;4.90;99.90
41922;DHT22;27609;51.002;5.354;2023-03-07T02:50:21;4.80;99.90
41922;DHT22;27609;51.002;5.354;2023-03-07T02:52:47;4.90;99.90
41922;DHT22;27609;51.002;5.354;2023-03-07T02:55:14;4.80;99.90
41922;DHT22;27609;51.002;5.354;2023-03-07T02:57:40;4.70;99.90
41922;DHT22;27609;51.002;5.354;2023-03-07T03:00:06;4.70;99.90
41922;DHT22;27609;51.002;5.354;2023-03-07T03:02:33;4.80;99.90
41922;DHT22;27609;51.002;5.354;2023-03-07T03:04:59;4.80;99.90
41922;DHT22;27609;51.002;5.354;2023-03-07T03:07:25;4.60;99.90
41922;DHT22;27609;51.002;5.354;2023-03-07T03:09:50;4.70;99.90
41922;DHT22;27609;51.002;5.354;2023-03-07T03:12:16;4.70;99.90
41922;DHT22;27609;51.002;5.354;2023-03-07T03:14:42;4.70;99.90
41922;DHT22;27609;51.002;5.354;2023-03-07T03:17:07;4.70;99.90
41922;DHT22;27609;51.002;5.354;2023-03-07T03:19:33;4.70;99.90
41922;DHT22;27609;51.002;5.354;2023-03-07T03:21:59;4.70;99.90
41922;DHT22;27609;51.002;5.354;2023-03-07T03:24:25;4.70;99.90
41922;DHT22;27609;51.002;5.354;2023-03-07T03:26:50;4.70;99.90
41922;DHT22;27609;51.002;5.354;2023-03-07T03:29:16;4.60;99.90
41922;DHT22;27609;51.002;5.354;2023-03-07T03:31:42;4.60;99.90
41922;DHT22;27609;51.002;5.354;2023-03-07T03:34:09;4.70;99.90
41922;DHT22;27609;51.002;5.354;2023-03-07T03:36:34;4.70;99.90
41922;DHT22;27609;51.002;5.354;2023-03-07T03:39:00;4.70;99.90
41922;DHT22;27609;51.002;5.354;2023-03-07T03:41:26;4.60;99.90
41922;DHT22;27609;51.002;5.354;2023-03-07T03:43:51;4.70;99.90
41922;DHT22;27609;51.002;5.354;2023-03-07T03:46:17;4.70;99.90
41922;DHT22;27609;51.002;5.354;2023-03-07T03:48:53;4.70;99.90
41922;DHT22;27609;51.002;5.354;2023-03-07T03:51:20;4.60;99.90
41922;DHT22;27609;51.002;5.354;2023-03-07T03:53:47;4.60;99.90
41922;DHT22;27609;51.002;5.354;2023-03-07T03:56:15;4.70;99.90
41922;DHT22;27609;51.002;5.354;2023-03-07T03:58:42;4.60;99.90
41922;DHT22;27609;51.002;5.354;2023-03-07T04:01:10;4.60;99.90
41922;DHT22;27609;51.002;5.354;2023-03-07T04:03:42;4.70;99.90
41922;DHT22;27609;51.002;5.354;2023-03-07T04:06:10;4.70;99.90
41922;DHT22;27609;51.002;5.354;2023-03-07T04:08:37;4.60;99.90
41922;DHT22;27609;51.002;5.354;2023-03-07T04:11:04;4.50;99.90
41922;DHT22;27609;51.002;5.354;2023-03-07T04:13:34;4.50;99.90
41922;DHT22;27609;51.002;5.354;2023-03-07T04:16:00;4.50;99.90
41922;DHT22;27609;51.002;5.354;2023-03-07T04:18:26;4.50;99.90
41922;DHT22;27609;51.002;5.354;2023-03-07T04:20:52;4.60;99.90
41922;DHT22;27609;51.002;5.354;2023-03-07T04:23:19;4.50;99.90
41922;DHT22;27609;51.002;5.354;2023-03-07T04:25:53;4.50;99.90
41922;DHT22;27609;51.002;5.354;2023-03-07T04:28:24;4.50;99.90
41922;DHT22;27609;51.002;5.354;2023-03-07T04:30:49;4.50;99.90
41922;DHT22;27609;51.002;5.354;2023-03-07T04:33:17;4.40;99.90
41922;DHT22;27609;51.002;5.354;2023-03-07T04:35:43;4.50;99.90
41922;DHT22;27609;51.002;5.354;2023-03-07T04:38:10;4.50;99.90
41922;DHT22;27609;51.002;5.354;2023-03-07T04:40:36;4.60;99.90
41922;DHT22;27609;51.002;5.354;2023-03-07T04:43:02;4.60;99.90
41922;DHT22;27609;51.002;5.354;2023-03-07T04:45:33;4.60;99.90
41922;DHT22;27609;51.002;5.354;2023-03-07T04:47:59;4.60;99.90
41922;DHT22;27609;51.002;5.354;2023-03-07T04:50:25;4.50;99.90
41922;DHT22;27609;51.002;5.354;2023-03-07T04:52:51;4.50;99.90
41922;DHT22;27609;51.002;5.354;2023-03-07T04:55:17;4.50;99.90
41922;DHT22;27609;51.002;5.354;2023-03-07T04:57:42;4.50;99.90
41922;DHT22;27609;51.002;5.354;2023-03-07T05:00:08;4.60;99.90
41922;DHT22;27609;51.002;5.354;2023-03-07T05:02:35;4.60;99.90
41922;DHT22;27609;51.002;5.354;2023-03-07T05:05:01;4.60;99.90
41922;DHT22;27609;51.002;5.354;2023-03-07T05:07:27;4.70;99.90
41922;DHT22;27609;51.002;5.354;2023-03-07T05:09:54;4.60;99.90
41922;DHT22;27609;51.002;5.354;2023-03-07T05:12:21;4.60;99.90
41922;DHT22;27609;51.002;5.354;2023-03-07T05:14:46;4.60;99.90
41922;DHT22;27609;51.002;5.354;2023-03-07T05:17:12;4.60;99.90
41922;DHT22;27609;51.002;5.354;2023-03-07T05:19:38;4.60;99.90
41922;DHT22;27609;51.002;5.354;2023-03-07T05:22:03;4.60;99.90
41922;DHT22;27609;51.002;5.354;2023-03-07T05:24:29;4.60;99.90
41922;DHT22;27609;51.002;5.354;2023-03-07T05:26:55;4.60;99.90
41922;DHT22;27609;51.002;5.354;2023-03-07T05:29:20;4.60;99.90
41922;DHT22;27609;51.002;5.354;2023-03-07T05:31:46;4.60;99.90
41922;DHT22;27609;51.002;5.354;2023-03-07T05:34:12;4.60;99.90
41922;DHT22;27609;51.002;5.354;2023-03-07T05:36:37;4.60;99.90
41922;DHT22;27609;51.002;5.354;2023-03-07T05:39:03;4.60;99.90
41922;DHT22;27609;51.002;5.354;2023-03-07T05:41:29;4.60;99.90
41922;DHT22;27609;51.002;5.354;2023-03-07T05:43:55;4.60;99.90
41922;DHT22;27609;51.002;5.354;2023-03-07T05:46:22;4.60;99.90
41922;DHT22;27609;51.002;5.354;2023-03-07T05:48:48;4.50;99.90
41922;DHT22;27609;51.002;5.354;2023-03-07T05:51:14;4.50;99.90
41922;DHT22;27609;51.002;5.354;2023-03-07T05:53:39;4.50;99.90
41922;DHT22;27609;51.002;5.354;2023-03-07T05:56:06;4.60;99.90
41922;DHT22;27609;51.002;5.354;2023-03-07T05:58:31;4.50;99.90
41922;DHT22;27609;51.002;5.354;2023-03-07T06:00:57;4.50;99.90
41922;DHT22;27609;51.002;5.354;2023-03-07T06:03:26;4.50;99.90
41922;DHT22;27609;51.002;5.354;2023-03-07T06:05:51;4.50;99.90
41922;DHT22;27609;51.002;5.354;2023-03-07T06:08:17;4.50;99.90
41922;DHT22;27609;51.002;5.354;2023-03-07T06:10:43;4.50;99.90
41922;DHT22;27609;51.002;5.354;2023-03-07T06:13:17;4.60;99.90
41922;DHT22;27609;51.002;5.354;2023-03-07T06:15:43;4.60;99.90
41922;DHT22;27609;51.002;5.354;2023-03-07T06:18:09;4.50;99.90
41922;DHT22;27609;51.002;5.354;2023-03-07T06:20:35;4.60;99.90
41922;DHT22;27609;51.002;5.354;2023-03-07T06:23:01;4.60;99.90
41922;DHT22;27609;51.002;5.354;2023-03-07T06:25:27;4.60;99.90
41922;DHT22;27609;51.002;5.354;2023-03-07T06:27:52;4.70;99.90
41922;DHT22;27609;51.002;5.354;2023-03-07T06:30:24;4.60;99.90
41922;DHT22;27609;51.002;5.354;2023-03-07T06:32:49;4.60;99.90
41922;DHT22;27609;51.002;5.354;2023-03-07T06:35:15;4.60;99.90
41922;DHT22;27609;51.002;5.354;2023-03-07T06:37:41;4.60;99.90
41922;DHT22;27609;51.002;5.354;2023-03-07T06:40:07;4.60;99.90
41922;DHT22;27609;51.002;5.354;2023-03-07T06:42:34;4.60;99.90
41922;DHT22;27609;51.002;5.354;2023-03-07T06:44:59;4.60;99.90
41922;DHT22;27609;51.002;5.354;2023-03-07T06:47:25;4.60;99.90
41922;DHT22;27609;51.002;5.354;2023-03-07T06:49:51;4.60;99.90
41922;DHT22;27609;51.002;5.354;2023-03-07T06:52:18;4.60;99.90
41922;DHT22;27609;51.002;5.354;2023-03-07T06:54:43;4.50;99.90
41922;DHT22;27609;51.002;5.354;2023-03-07T06:57:09;4.50;99.90
41922;DHT22;27609;51.002;5.354;2023-03-07T06:59:35;4.50;99.90
41922;DHT22;27609;51.002;5.354;2023-03-07T07:02:01;4.60;99.90
41922;DHT22;27609;51.002;5.354;2023-03-07T07:04:28;4.60;99.90
41922;DHT22;27609;51.002;5.354;2023-03-07T07:06:53;4.60;99.90
41922;DHT22;27609;51.002;5.354;2023-03-07T07:09:19;4.70;99.90
41922;DHT22;27609;51.002;5.354;2023-03-07T07:11:45;4.70;99.90
41922;DHT22;27609;51.002;5.354;2023-03-07T07:14:10;4.70;99.90
41922;DHT22;27609;51.002;5.354;2023-03-07T07:16:36;4.70;99.90
41922;DHT22;27609;51.002;5.354;2023-03-07T07:19:02;4.70;99.90
41922;DHT22;27609;51.002;5.354;2023-03-07T07:21:28;4.70;99.90
41922;DHT22;27609;51.002;5.354;2023-03-07T07:23:55;4.70;99.90
41922;DHT22;27609;51.002;5.354;2023-03-07T07:26:22;4.60;99.90
41922;DHT22;27609;51.002;5.354;2023-03-07T07:28:49;4.70;99.90
41922;DHT22;27609;51.002;5.354;2023-03-07T07:31:15;4.70;99.90
41922;DHT22;27609;51.002;5.354;2023-03-07T07:33:41;4.60;99.90
41922;DHT22;27609;51.002;5.354;2023-03-07T07:36:07;4.60;99.90
41922;DHT22;27609;51.002;5.354;2023-03-07T07:38:33;4.60;99.90
41922;DHT22;27609;51.002;5.354;2023-03-07T07:40:59;4.70;99.90
41922;DHT22;27609;51.002;5.354;2023-03-07T07:43:27;4.70;99.90
41922;DHT22;27609;51.002;5.354;2023-03-07T07:45:53;4.70;99.90
41922;DHT22;27609;51.002;5.354;2023-03-07T07:48:18;4.70;99.90
41922;DHT22;27609;51.002;5.354;2023-03-07T07:50:44;4.80;99.90
41922;DHT22;27609;51.002;5.354;2023-03-07T07:53:11;4.70;99.90
41922;DHT22;27609;51.002;5.354;2023-03-07T07:55:37;4.80;99.90
41922;DHT22;27609;51.002;5.354;2023-03-07T07:58:03;4.80;99.90
41922;DHT22;27609;51.002;5.354;2023-03-07T08:00:29;4.80;99.90
41922;DHT22;27609;51.002;5.354;2023-03-07T08:02:54;4.70;99.90
41922;DHT22;27609;51.002;5.354;2023-03-07T08:05:21;4.80;99.90
41922;DHT22;27609;51.002;5.354;2023-03-07T08:07:46;4.80;99.90
41922;DHT22;27609;51.002;5.354;2023-03-07T08:10:13;4.90;99.90
41922;DHT22;27609;51.002;5.354;2023-03-07T08:12:49;4.80;99.90
41922;DHT22;27609;51.002;5.354;2023-03-07T08:15:18;4.80;99.90
41922;DHT22;27609;51.002;5.354;2023-03-07T08:17:46;4.90;99.90
41922;DHT22;27609;51.002;5.354;2023-03-07T08:20:13;5.00;99.90
41922;DHT22;27609;51.002;5.354;2023-03-07T08:22:39;5.10;99.90
41922;DHT22;27609;51.002;5.354;2023-03-07T08:25:05;5.10;99.90
41922;DHT22;27609;51.002;5.354;2023-03-07T08:27:32;5.10;99.90
41922;DHT22;27609;51.002;5.354;2023-03-07T08:29:59;5.10;99.90
41922;DHT22;27609;51.002;5.354;2023-03-07T08:32:26;5.20;99.90
41922;DHT22;27609;51.002;5.354;2023-03-07T08:34:52;5.20;99.90
41922;DHT22;27609;51.002;5.354;2023-03-07T08:37:17;5.20;99.90
41922;DHT22;27609;51.002;5.354;2023-03-07T08:39:43;5.20;99.90
41922;DHT22;27609;51.002;5.354;2023-03-07T08:42:09;5.20;99.90
41922;DHT22;27609;51.002;5.354;2023-03-07T08:44:34;5.20;99.90
41922;DHT22;27609;51.002;5.354;2023-03-07T08:47:00;5.20;99.90
41922;DHT22;27609;51.002;5.354;2023-03-07T08:49:26;5.30;99.90
41922;DHT22;27609;51.002;5.354;2023-03-07T08:51:51;5.30;99.90
41922;DHT22;27609;51.002;5.354;2023-03-07T08:54:17;5.20;99.90
41922;DHT22;27609;51.002;5.354;2023-03-07T08:56:43;5.30;99.90
41922;DHT22;27609;51.002;5.354;2023-03-07T08:59:08;5.30;99.90
41922;DHT22;27609;51.002;5.354;2023-03-07T09:01:34;5.30;99.90
41922;DHT22;27609;51.002;5.354;2023-03-07T09:04:00;5.20;99.90
41922;DHT22;27609;51.002;5.354;2023-03-07T09:06:26;5.20;99.90
41922;DHT22;27609;51.002;5.354;2023-03-07T09:08:51;5.30;99.90
41922;DHT22;27609;51.002;5.354;2023-03-07T09:11:18;5.20;99.90
41922;DHT22;27609;51.002;5.354;2023-03-07T09:13:44;5.30;99.90
41922;DHT22;27609;51.002;5.354;2023-03-07T09:16:09;5.20;99.90
41922;DHT22;27609;51.002;5.354;2023-03-07T09:18:35;5.20;99.90
41922;DHT22;27609;51.002;5.354;2023-03-07T09:21:02;5.20;99.90
41922;DHT22;27609;51.002;5.354;2023-03-07T09:23:28;5.20;99.90
41922;DHT22;27609;51.002;5.354;2023-03-07T09:25:57;5.20;99.90
41922;DHT22;27609;51.002;5.354;2023-03-07T09:28:23;5.20;99.90
41922;DHT22;27609;51.002;5.354;2023-03-07T09:30:49;5.20;99.90
41922;DHT22;27609;51.002;5.354;2023-03-07T09:33:14;5.10;99.90
41922;DHT22;27609;51.002;5.354;2023-03-07T09:35:40;5.20;99.90
41922;DHT22;27609;51.002;5.354;2023-03-07T09:38:05;5.20;99.90
41922;DHT22;27609;51.002;5.354;2023-03-07T09:40:31;5.30;99.90
41922;DHT22;27609;51.002;5.354;2023-03-07T09:43:15;5.30;99.90
41922;DHT22;27609;51.002;5.354;2023-03-07T09:51:40;5.50;99.90
41922;DHT22;27609;51.002;5.354;2023-03-07T09:54:25;5.50;99.90
41922;DHT22;27609;51.002;5.354;2023-03-07T09:56:58;5.40;99.90
41922;DHT22;27609;51.002;5.354;2023-03-07T10:04:50;5.30;99.90
41922;DHT22;27609;51.002;5.354;2023-03-07T10:07:21;5.50;99.90
41922;DHT22;27609;51.002;5.354;2023-03-07T10:09:54;5.60;99.90
41922;DHT22;27609;51.002;5.354;2023-03-07T10:20:18;5.80;99.90
41922;DHT22;27609;51.002;5.354;2023-03-07T10:22:56;6.00;99.90
41922;DHT22;27609;51.002;5.354;2023-03-07T10:25:27;6.00;99.90
41922;DHT22;27609;51.002;5.354;2023-03-07T10:28:01;5.90;99.90
41922;DHT22;27609;51.002;5.354;2023-03-07T10:30:34;6.00;99.90
41922;DHT22;27609;51.002;5.354;2023-03-07T10:33:00;6.10;99.90
41922;DHT22;27609;51.002;5.354;2023-03-07T10:35:40;6.20;99.90
41922;DHT22;27609;51.002;5.354;2023-03-07T10:38:12;6.10;99.90
41922;DHT22;27609;51.002;5.354;2023-03-07T10:40:47;5.90;99.90
41922;DHT22;27609;51.002;5.354;2023-03-07T10:43:24;6.00;99.90
41922;DHT22;27609;51.002;5.354;2023-03-07T10:46:09;6.10;99.90
41922;DHT22;27609;51.002;5.354;2023-03-07T10:48:37;6.10;99.90
41922;DHT22;27609;51.002;5.354;2023-03-07T10:54:03;6.20;99.90
41922;DHT22;27609;51.002;5.354;2023-03-07T10:56:29;6.20;99.90
41922;DHT22;27609;51.002;5.354;2023-03-07T11:01:25;6.10;99.90
41922;DHT22;27609;51.002;5.354;2023-03-07T11:04:06;5.90;99.90
41922;DHT22;27609;51.002;5.354;2023-03-07T11:09:29;6.00;99.90
41922;DHT22;27609;51.002;5.354;2023-03-07T11:11:56;6.10;99.90
41922;DHT22;27609;51.002;5.354;2023-03-07T11:14:24;6.40;99.90
41922;DHT22;27609;51.002;5.354;2023-03-07T11:16:59;6.50;99.90
41922;DHT22;27609;51.002;5.354;2023-03-07T11:19:40;6.60;99.90
41922;DHT22;27609;51.002;5.354;2023-03-07T11:22:30;6.50;99.90
41922;DHT22;27609;51.002;5.354;2023-03-07T11:27:51;6.60;99.90
41922;DHT22;27609;51.002;5.354;2023-03-07T11:33:16;6.20;99.90
41922;DHT22;27609;51.002;5.354;2023-03-07T11:38:59;6.10;99.90
41922;DHT22;27609;51.002;5.354;2023-03-07T11:41:36;6.00;99.90
41922;DHT22;27609;51.002;5.354;2023-03-07T11:44:30;6.00;99.90
41922;DHT22;27609;51.002;5.354;2023-03-07T11:47:09;6.00;99.90
41922;DHT22;27609;51.002;5.354;2023-03-07T11:52:43;5.60;99.90
41922;DHT22;27609;51.002;5.354;2023-03-07T12:08:46;6.10;99.90
41922;DHT22;27609;51.002;5.354;2023-03-07T12:14:22;5.90;99.90
41922;DHT22;27609;51.002;5.354;2023-03-07T12:22:28;6.20;99.90
41922;DHT22;27609;51.002;5.354;2023-03-07T12:25:35;6.40;99.90
41922;DHT22;27609;51.002;5.354;2023-03-07T12:36:33;7.00;99.90
41922;DHT22;27609;51.002;5.354;2023-03-07T12:44:37;6.80;99.90
41922;DHT22;27609;51.002;5.354;2023-03-07T12:49:53;6.60;99.90
41922;DHT22;27609;51.002;5.354;2023-03-07T12:55:31;6.60;99.90
41922;DHT22;27609;51.002;5.354;2023-03-07T13:00:29;6.70;99.90
41922;DHT22;27609;51.002;5.354;2023-03-07T13:03:00;6.60;99.90
41922;DHT22;27609;51.002;5.354;2023-03-07T13:05:27;6.60;99.90
41922;DHT22;27609;51.002;5.354;2023-03-07T13:07:53;6.40;99.90
41922;DHT22;27609;51.002;5.354;2023-03-07T13:10:21;6.40;99.90
41922;DHT22;27609;51.002;5.354;2023-03-07T13:12:49;6.40;99.90
41922;DHT22;27609;51.002;5.354;2023-03-07T13:27:57;6.00;99.90
41922;DHT22;27609;51.002;5.354;2023-03-07T13:30:30;5.90;99.90
41922;DHT22;27609;51.002;5.354;2023-03-07T13:32:59;6.00;99.90
41922;DHT22;27609;51.002;5.354;2023-03-07T13:37:56;6.10;99.90
41922;DHT22;27609;51.002;5.354;2023-03-07T13:40:24;6.30;99.90
41922;DHT22;27609;51.002;5.354;2023-03-07T13:42:50;6.40;99.90
41922;DHT22;27609;51.002;5.354;2023-03-07T14:01:42;6.50;99.90
41922;DHT22;27609;51.002;5.354;2023-03-07T14:06:38;6.70;99.90
41922;DHT22;27609;51.002;5.354;2023-03-07T14:09:06;6.70;99.90
41922;DHT22;27609;51.002;5.354;2023-03-07T14:14:44;6.40;99.90
41922;DHT22;27609;51.002;5.354;2023-03-07T14:22:35;5.70;99.90
41922;DHT22;27609;51.002;5.354;2023-03-07T14:25:19;5.60;99.90
41922;DHT22;27609;51.002;5.354;2023-03-07T14:30:20;5.70;99.90
41922;DHT22;27609;51.002;5.354;2023-03-07T14:32:46;5.70;99.90
41922;DHT22;27609;51.002;5.354;2023-03-07T14:35:12;5.50;99.90
41922;DHT22;27609;51.002;5.354;2023-03-07T14:37:41;5.70;99.90
41922;DHT22;27609;51.002;5.354;2023-03-07T14:40:12;5.70;99.90
41922;DHT22;27609;51.002;5.354;2023-03-07T14:46:17;5.40;99.90
41922;DHT22;27609;51.002;5.354;2023-03-07T14:49:06;5.50;99.90
41922;DHT22;27609;51.002;5.354;2023-03-07T14:51:39;5.50;99.90
41922;DHT22;27609;51.002;5.354;2023-03-07T14:54:17;5.40;99.90
41922;DHT22;27609;51.002;5.354;2023-03-07T14:56:44;5.40;99.90
41922;DHT22;27609;51.002;5.354;2023-03-07T14:59:12;5.50;99.90
41922;DHT22;27609;51.002;5.354;2023-03-07T15:01:39;5.50;99.90
41922;DHT22;27609;51.002;5.354;2023-03-07T15:04:25;5.60;99.90
41922;DHT22;27609;51.002;5.354;2023-03-07T15:07:03;5.40;99.90
41922;DHT22;27609;51.002;5.354;2023-03-07T15:09:30;5.40;99.90
41922;DHT22;27609;51.002;5.354;2023-03-07T15:12:15;5.20;99.90
41922;DHT22;27609;51.002;5.354;2023-03-07T15:14:51;5.20;99.90
41922;DHT22;27609;51.002;5.354;2023-03-07T15:17:37;5.20;99.90
41922;DHT22;27609;51.002;5.354;2023-03-07T15:20:32;5.20;99.90
41922;DHT22;27609;51.002;5.354;2023-03-07T15:23:04;5.10;99.90
41922;DHT22;27609;51.002;5.354;2023-03-07T15:25:30;5.10;99.90
41922;DHT22;27609;51.002;5.354;2023-03-07T15:28:02;5.20;99.90
41922;DHT22;27609;51.002;5.354;2023-03-07T15:30:33;5.30;99.90
41922;DHT22;27609;51.002;5.354;2023-03-07T15:33:04;5.30;99.90
41922;DHT22;27609;51.002;5.354;2023-03-07T15:35:34;5.30;99.90
41922;DHT22;27609;51.002;5.354;2023-03-07T15:38:12;5.10;99.90
41922;DHT22;27609;51.002;5.354;2023-03-07T15:40:39;4.90;99.90
41922;DHT22;27609;51.002;5.354;2023-03-07T15:46:12;5.10;99.90
41922;DHT22;27609;51.002;5.354;2023-03-07T15:48:47;5.20;99.90
41922;DHT22;27609;51.002;5.354;2023-03-07T15:51:22;5.30;99.90
41922;DHT22;27609;51.002;5.354;2023-03-07T15:53:57;5.20;99.90
41922;DHT22;27609;51.002;5.354;2023-03-07T15:56:25;5.30;99.90
41922;DHT22;27609;51.002;5.354;2023-03-07T15:58:59;5.30;99.90
41922;DHT22;27609;51.002;5.354;2023-03-07T16:01:26;5.40;99.90
41922;DHT22;27609;51.002;5.354;2023-03-07T16:03:57;5.30;99.90
41922;DHT22;27609;51.002;5.354;2023-03-07T16:08:55;5.50;99.90
41922;DHT22;27609;51.002;5.354;2023-03-07T16:11:21;5.40;99.90
41922;DHT22;27609;51.002;5.354;2023-03-07T16:13:47;5.40;99.90
41922;DHT22;27609;51.002;5.354;2023-03-07T16:18:39;5.40;99.90
41922;DHT22;27609;51.002;5.354;2023-03-07T16:21:05;5.40;99.90
41922;DHT22;27609;51.002;5.354;2023-03-07T16:23:31;5.40;99.90
41922;DHT22;27609;51.002;5.354;2023-03-07T16:25:59;5.40;99.90
41922;DHT22;27609;51.002;5.354;2023-03-07T16:28:27;5.40;99.90
41922;DHT22;27609;51.002;5.354;2023-03-07T16:30:52;5.50;99.90
41922;DHT22;27609;51.002;5.354;2023-03-07T16:33:18;5.50;99.90
41922;DHT22;27609;51.002;5.354;2023-03-07T16:35:44;5.30;99.90
41922;DHT22;27609;51.002;5.354;2023-03-07T16:38:09;5.40;99.90
41922;DHT22;27609;51.002;5.354;2023-03-07T16:40:40;5.40;99.90
41922;DHT22;27609;51.002;5.354;2023-03-07T16:43:37;5.40;99.90
41922;DHT22;27609;51.002;5.354;2023-03-07T16:46:05;5.40;99.90
41922;DHT22;27609;51.002;5.354;2023-03-07T16:48:34;5.50;99.90
41922;DHT22;27609;51.002;5.354;2023-03-07T16:51:01;5.40;99.90
41922;DHT22;27609;51.002;5.354;2023-03-07T16:53:27;5.40;99.90
41922;DHT22;27609;51.002;5.354;2023-03-07T16:55:53;5.50;99.90
41922;DHT22;27609;51.002;5.354;2023-03-07T16:58:31;5.50;99.90
41922;DHT22;27609;51.002;5.354;2023-03-07T17:00:58;5.40;99.90
41922;DHT22;27609;51.002;5.354;2023-03-07T17:03:24;4.90;99.90
41922;DHT22;27609;51.002;5.354;2023-03-07T17:05:50;4.80;99.90
41922;DHT22;27609;51.002;5.354;2023-03-07T17:08:16;4.90;99.90
41922;DHT22;27609;51.002;5.354;2023-03-07T17:10:42;4.80;99.90
41922;DHT22;27609;51.002;5.354;2023-03-07T17:13:11;4.80;99.90
41922;DHT22;27609;51.002;5.354;2023-03-07T17:15:39;4.90;99.90
41922;DHT22;27609;51.002;5.354;2023-03-07T17:18:05;5.00;99.90
41922;DHT22;27609;51.002;5.354;2023-03-07T17:20:31;4.90;99.90
41922;DHT22;27609;51.002;5.354;2023-03-07T17:22:58;4.80;99.90
41922;DHT22;27609;51.002;5.354;2023-03-07T17:25:24;4.80;99.90
41922;DHT22;27609;51.002;5.354;2023-03-07T17:28:02;4.80;99.90
41922;DHT22;27609;51.002;5.354;2023-03-07T17:30:29;4.90;99.90
41922;DHT22;27609;51.002;5.354;2023-03-07T17:32:55;4.90;99.90
41922;DHT22;27609;51.002;5.354;2023-03-07T17:35:22;5.00;99.90
41922;DHT22;27609;51.002;5.354;2023-03-07T17:37:51;5.00;99.90
41922;DHT22;27609;51.002;5.354;2023-03-07T17:40:20;5.00;99.90
41922;DHT22;27609;51.002;5.354;2023-03-07T17:42:48;4.90;99.90
41922;DHT22;27609;51.002;5.354;2023-03-07T17:45:15;4.90;99.90
41922;DHT22;27609;51.002;5.354;2023-03-07T17:47:41;4.80;99.90
41922;DHT22;27609;51.002;5.354;2023-03-07T17:50:09;4.80;99.90
41922;DHT22;27609;51.002;5.354;2023-03-07T17:52:35;4.70;99.90
41922;DHT22;27609;51.002;5.354;2023-03-07T17:55:01;4.70;99.90
41922;DHT22;27609;51.002;5.354;2023-03-07T17:57:27;4.70;99.90
41922;DHT22;27609;51.002;5.354;2023-03-07T17:59:53;4.70;99.90
41922;DHT22;27609;51.002;5.354;2023-03-07T18:02:19;4.70;99.90
41922;DHT22;27609;51.002;5.354;2023-03-07T18:04:45;4.80;99.90
41922;DHT22;27609;51.002;5.354;2023-03-07T18:07:11;4.90;99.90
41922;DHT22;27609;51.002;5.354;2023-03-07T18:09:37;4.80;99.90
41922;DHT22;27609;51.002;5.354;2023-03-07T18:12:03;4.70;99.90
41922;DHT22;27609;51.002;5.354;2023-03-07T18:14:29;4.70;99.90
41922;DHT22;27609;51.002;5.354;2023-03-07T18:16:55;4.80;99.90
41922;DHT22;27609;51.002;5.354;2023-03-07T18:19:20;4.80;99.90
41922;DHT22;27609;51.002;5.354;2023-03-07T18:21:46;4.70;99.90